sensor_id;sensor_type;location;lat;lon;timestamp;pressure;altitude;pressure_sealevel;temperature;humidity
28797;BME280;24974;54.444;18.560;2023-04-26T00:02:21;100431.22;;;8.45;52.58
28797;BME280;24974;54.444;18.560;2023-04-26T00:04:53;100422.91;;;8.31;52.97
28797;BME280;24974;54.444;18.560;2023-04-26T00:07:28;100427.09;;;9.52;50.14
28797;BME280;24974;54.444;18.560;2023-04-26T00:10:00;100421.03;;;9.42;50.09
28797;BME280;24974;54.444;18.560;2023-04-26T00:12:31;100422.81;;;9.24;50.84
28797;BME280;24974;54.444;18.560;2023-04-26T00:15:03;100429.19;;;9.06;51.37
28797;BME280;24974;54.444;18.560;2023-04-26T00:17:34;100422.53;;;8.84;51.97
28797;BME280;24974;54.444;18.560;2023-04-26T00:20:06;100425.88;;;8.95;52.29
28797;BME280;24974;54.444;18.560;2023-04-26T00:22:39;100420.03;;;8.41;53.04
28797;BME280;24974;54.444;18.560;2023-04-26T00:25:10;100417.16;;;8.93;51.97
28797;BME280;24974;54.444;18.560;2023-04-26T00:27:42;100420.28;;;8.59;53.03
28797;BME280;24974;54.444;18.560;2023-04-26T00:30:13;100426.47;;;9.19;51.92
28797;BME280;24974;54.444;18.560;2023-04-26T00:32:44;100430.22;;;9.10;52.27
28797;BME280;24974;54.444;18.560;2023-04-26T00:35:16;100419.25;;;9.23;51.51
28797;BME280;24974;54.444;18.560;2023-04-26T00:37:48;100422.13;;;8.91;52.23
28797;BME280;24974;54.444;18.560;2023-04-26T00:40:18;100415.31;;;8.75;52.77
28797;BME280;24974;54.444;18.560;2023-04-26T00:42:56;100416.53;;;8.96;52.03
28797;BME280;24974;54.444;18.560;2023-04-26T00:45:27;100425.88;;;9.22;51.67
28797;BME280;24974;54.444;18.560;2023-04-26T00:48:00;100415.50;;;8.64;53.59
28797;BME280;24974;54.444;18.560;2023-04-26T00:50:32;100410.41;;;8.58;53.46
28797;BME280;24974;54.444;18.560;2023-04-26T00:53:03;100418.22;;;8.64;53.56
28797;BME280;24974;54.444;18.560;2023-04-26T00:55:34;100409.81;;;8.61;53.78
28797;BME280;24974;54.444;18.560;2023-04-26T00:58:05;100410.53;;;8.80;53.12
28797;BME280;24974;54.444;18.560;2023-04-26T01:00:36;100407.91;;;8.75;53.27
28797;BME280;24974;54.444;18.560;2023-04-26T01:03:07;100418.75;;;8.53;53.85
28797;BME280;24974;54.444;18.560;2023-04-26T01:05:39;100417.22;;;8.88;53.07
28797;BME280;24974;54.444;18.560;2023-04-26T01:08:10;100415.06;;;9.26;52.09
28797;BME280;24974;54.444;18.560;2023-04-26T01:10:40;100420.16;;;9.05;52.44
28797;BME280;24974;54.444;18.560;2023-04-26T01:13:12;100413.66;;;8.74;52.75
28797;BME280;24974;54.444;18.560;2023-04-26T01:15:45;100413.03;;;9.32;51.86
28797;BME280;24974;54.444;18.560;2023-04-26T01:18:16;100417.25;;;9.15;52.44
28797;BME280;24974;54.444;18.560;2023-04-26T01:20:47;100430.06;;;9.56;51.33
28797;BME280;24974;54.444;18.560;2023-04-26T01:23:18;100422.09;;;9.18;51.56
28797;BME280;24974;54.444;18.560;2023-04-26T01:25:48;100424.63;;;9.29;51.75
28797;BME280;24974;54.444;18.560;2023-04-26T01:28:19;100415.63;;;9.14;51.86
28797;BME280;24974;54.444;18.560;2023-04-26T01:30:51;100421.06;;;9.28;51.75
28797;BME280;24974;54.444;18.560;2023-04-26T01:33:22;100409.28;;;9.28;51.89
28797;BME280;24974;54.444;18.560;2023-04-26T01:35:55;100416.88;;;9.44;51.83
28797;BME280;24974;54.444;18.560;2023-04-26T01:38:26;100410.97;;;9.51;51.78
28797;BME280;24974;54.444;18.560;2023-04-26T01:40:58;100413.16;;;9.13;52.27
28797;BME280;24974;54.444;18.560;2023-04-26T01:43:28;100412.38;;;8.85;52.50
28797;BME280;24974;54.444;18.560;2023-04-26T01:46:01;100418.31;;;9.42;51.96
28797;BME280;24974;54.444;18.560;2023-04-26T01:48:35;100417.84;;;8.99;52.40
28797;BME280;24974;54.444;18.560;2023-04-26T01:51:05;100409.91;;;9.11;52.13
28797;BME280;24974;54.444;18.560;2023-04-26T01:53:37;100414.19;;;9.03;52.64
28797;BME280;24974;54.444;18.560;2023-04-26T01:56:08;100417.63;;;9.22;52.27
28797;BME280;24974;54.444;18.560;2023-04-26T01:58:41;100416.72;;;9.13;52.18
28797;BME280;24974;54.444;18.560;2023-04-26T02:01:13;100414.19;;;8.89;53.10
28797;BME280;24974;54.444;18.560;2023-04-26T02:03:44;100422.69;;;9.29;51.76
28797;BME280;24974;54.444;18.560;2023-04-26T02:06:15;100413.78;;;9.23;52.30
28797;BME280;24974;54.444;18.560;2023-04-26T02:08:46;100420.56;;;9.40;51.91
28797;BME280;24974;54.444;18.560;2023-04-26T02:11:16;100422.22;;;9.00;52.93
28797;BME280;24974;54.444;18.560;2023-04-26T02:13:47;100410.53;;;9.08;52.86
28797;BME280;24974;54.444;18.560;2023-04-26T02:16:18;100413.22;;;9.35;52.06
28797;BME280;24974;54.444;18.560;2023-04-26T02:18:49;100420.66;;;9.21;52.58
28797;BME280;24974;54.444;18.560;2023-04-26T02:21:21;100409.00;;;8.88;53.33
28797;BME280;24974;54.444;18.560;2023-04-26T02:23:51;100413.56;;;9.06;53.04
28797;BME280;24974;54.444;18.560;2023-04-26T02:26:22;100411.44;;;8.89;53.49
28797;BME280;24974;54.444;18.560;2023-04-26T02:28:53;100405.66;;;9.05;53.37
28797;BME280;24974;54.444;18.560;2023-04-26T02:31:24;100406.06;;;9.12;53.23
28797;BME280;24974;54.444;18.560;2023-04-26T02:33:55;100398.00;;;9.29;52.72
28797;BME280;24974;54.444;18.560;2023-04-26T02:36:26;100407.81;;;9.08;53.15
28797;BME280;24974;54.444;18.560;2023-04-26T02:38:57;100406.19;;;9.07;53.49
28797;BME280;24974;54.444;18.560;2023-04-26T02:41:31;100404.13;;;9.26;52.59
28797;BME280;24974;54.444;18.560;2023-04-26T02:44:02;100406.16;;;8.65;54.57
28797;BME280;24974;54.444;18.560;2023-04-26T02:46:34;100407.19;;;9.11;53.70
28797;BME280;24974;54.444;18.560;2023-04-26T02:49:05;100422.03;;;8.82;53.90
28797;BME280;24974;54.444;18.560;2023-04-26T02:51:36;100405.75;;;8.72;54.29
28797;BME280;24974;54.444;18.560;2023-04-26T02:54:07;100412.25;;;8.90;53.90
28797;BME280;24974;54.444;18.560;2023-04-26T02:56:38;100405.97;;;8.89;54.34
28797;BME280;24974;54.444;18.560;2023-04-26T02:59:09;100409.19;;;9.19;53.19
28797;BME280;24974;54.444;18.560;2023-04-26T03:01:40;100403.03;;;8.86;54.16
28797;BME280;24974;54.444;18.560;2023-04-26T03:04:10;100405.75;;;9.13;53.68
28797;BME280;24974;54.444;18.560;2023-04-26T03:06:41;100408.41;;;8.77;54.70
28797;BME280;24974;54.444;18.560;2023-04-26T03:09:12;100407.59;;;9.04;53.98
28797;BME280;24974;54.444;18.560;2023-04-26T03:11:43;100405.72;;;9.27;53.40
28797;BME280;24974;54.444;18.560;2023-04-26T03:14:14;100415.38;;;9.74;52.43
28797;BME280;24974;54.444;18.560;2023-04-26T03:16:45;100411.25;;;9.00;54.05
28797;BME280;24974;54.444;18.560;2023-04-26T03:19:18;100407.09;;;8.75;54.37
28797;BME280;24974;54.444;18.560;2023-04-26T03:21:50;100406.97;;;8.66;54.81
28797;BME280;24974;54.444;18.560;2023-04-26T03:24:21;100411.44;;;9.03;53.93
28797;BME280;24974;54.444;18.560;2023-04-26T03:26:52;100411.66;;;8.79;54.83
28797;BME280;24974;54.444;18.560;2023-04-26T03:29:23;100417.34;;;8.83;54.66
28797;BME280;24974;54.444;18.560;2023-04-26T03:31:54;100410.84;;;8.51;55.37
28797;BME280;24974;54.444;18.560;2023-04-26T03:34:25;100417.53;;;8.86;54.68
28797;BME280;24974;54.444;18.560;2023-04-26T03:36:58;100418.53;;;9.18;54.23
28797;BME280;24974;54.444;18.560;2023-04-26T03:39:29;100417.81;;;9.12;53.52
28797;BME280;24974;54.444;18.560;2023-04-26T03:42:00;100419.66;;;8.89;54.45
28797;BME280;24974;54.444;18.560;2023-04-26T03:44:31;100413.69;;;8.87;54.36
28797;BME280;24974;54.444;18.560;2023-04-26T03:47:02;100426.28;;;9.02;54.56
28797;BME280;24974;54.444;18.560;2023-04-26T03:49:35;100413.69;;;9.15;53.58
28797;BME280;24974;54.444;18.560;2023-04-26T03:52:06;100416.13;;;8.61;55.12
28797;BME280;24974;54.444;18.560;2023-04-26T03:54:37;100425.56;;;8.69;54.98
28797;BME280;24974;54.444;18.560;2023-04-26T03:57:08;100422.75;;;8.41;55.38
28797;BME280;24974;54.444;18.560;2023-04-26T03:59:38;100426.16;;;8.80;54.58
28797;BME280;24974;54.444;18.560;2023-04-26T04:02:09;100434.16;;;8.62;55.06
28797;BME280;24974;54.444;18.560;2023-04-26T04:04:40;100427.09;;;8.75;54.53
28797;BME280;24974;54.444;18.560;2023-04-26T04:07:11;100435.69;;;8.55;55.05
28797;BME280;24974;54.444;18.560;2023-04-26T04:09:42;100442.88;;;8.51;54.87
28797;BME280;24974;54.444;18.560;2023-04-26T04:12:12;100432.66;;;9.11;53.89
28797;BME280;24974;54.444;18.560;2023-04-26T04:14:44;100442.50;;;9.40;53.07
28797;BME280;24974;54.444;18.560;2023-04-26T04:17:15;100434.28;;;8.71;54.29
28797;BME280;24974;54.444;18.560;2023-04-26T04:19:46;100435.00;;;9.04;53.59
28797;BME280;24974;54.444;18.560;2023-04-26T04:22:16;100437.81;;;8.72;54.63
28797;BME280;24974;54.444;18.560;2023-04-26T04:24:47;100453.00;;;8.36;55.54
28797;BME280;24974;54.444;18.560;2023-04-26T04:27:18;100454.69;;;8.79;54.46
28797;BME280;24974;54.444;18.560;2023-04-26T04:29:50;100448.28;;;8.69;54.39
28797;BME280;24974;54.444;18.560;2023-04-26T04:32:23;100448.19;;;9.02;53.54
28797;BME280;24974;54.444;18.560;2023-04-26T04:34:55;100451.44;;;9.04;53.81
28797;BME280;24974;54.444;18.560;2023-04-26T04:37:26;100455.91;;;9.14;53.61
28797;BME280;24974;54.444;18.560;2023-04-26T04:39:58;100448.56;;;8.54;54.81
28797;BME280;24974;54.444;18.560;2023-04-26T04:42:29;100446.00;;;8.44;55.36
28797;BME280;24974;54.444;18.560;2023-04-26T04:45:02;100453.16;;;8.73;54.35
28797;BME280;24974;54.444;18.560;2023-04-26T04:47:36;100460.78;;;8.76;54.17
28797;BME280;24974;54.444;18.560;2023-04-26T04:50:07;100449.81;;;9.03;53.82
28797;BME280;24974;54.444;18.560;2023-04-26T04:52:40;100458.56;;;9.19;52.96
28797;BME280;24974;54.444;18.560;2023-04-26T04:55:12;100453.91;;;8.46;55.03
28797;BME280;24974;54.444;18.560;2023-04-26T04:57:43;100460.88;;;9.12;53.01
28797;BME280;24974;54.444;18.560;2023-04-26T05:00:16;100459.56;;;8.17;55.10
28797;BME280;24974;54.444;18.560;2023-04-26T05:02:51;100471.66;;;8.48;54.37
28797;BME280;24974;54.444;18.560;2023-04-26T05:05:22;100463.69;;;8.52;54.87
28797;BME280;24974;54.444;18.560;2023-04-26T05:07:53;100472.25;;;8.78;53.94
28797;BME280;24974;54.444;18.560;2023-04-26T05:10:24;100469.66;;;8.54;54.88
28797;BME280;24974;54.444;18.560;2023-04-26T05:12:55;100469.88;;;8.57;54.65
28797;BME280;24974;54.444;18.560;2023-04-26T05:15:26;100476.84;;;9.10;53.32
28797;BME280;24974;54.444;18.560;2023-04-26T05:17:57;100475.56;;;8.61;54.49
28797;BME280;24974;54.444;18.560;2023-04-26T05:20:30;100480.38;;;9.10;53.62
28797;BME280;24974;54.444;18.560;2023-04-26T05:23:01;100483.47;;;8.62;54.64
28797;BME280;24974;54.444;18.560;2023-04-26T05:25:36;100487.59;;;8.92;54.13
28797;BME280;24974;54.444;18.560;2023-04-26T05:28:18;100477.50;;;8.60;55.17
28797;BME280;24974;54.444;18.560;2023-04-26T05:31:07;100478.88;;;9.18;53.71
28797;BME280;24974;54.444;18.560;2023-04-26T05:34:00;100478.81;;;9.59;52.79
28797;BME280;24974;54.444;18.560;2023-04-26T05:36:34;100481.88;;;9.30;53.46
28797;BME280;24974;54.444;18.560;2023-04-26T05:39:05;100487.38;;;9.44;52.54
28797;BME280;24974;54.444;18.560;2023-04-26T05:41:37;100478.16;;;9.40;53.05
28797;BME280;24974;54.444;18.560;2023-04-26T05:44:07;100480.66;;;9.64;52.16
28797;BME280;24974;54.444;18.560;2023-04-26T05:46:38;100481.47;;;9.50;52.71
28797;BME280;24974;54.444;18.560;2023-04-26T05:49:11;100473.09;;;9.69;51.65
28797;BME280;24974;54.444;18.560;2023-04-26T05:51:43;100466.28;;;9.31;52.63
28797;BME280;24974;54.444;18.560;2023-04-26T05:54:15;100472.50;;;9.72;51.69
28797;BME280;24974;54.444;18.560;2023-04-26T05:56:45;100469.78;;;9.95;51.19
28797;BME280;24974;54.444;18.560;2023-04-26T05:59:17;100485.97;;;9.46;51.80
28797;BME280;24974;54.444;18.560;2023-04-26T06:01:47;100484.03;;;9.47;51.99
28797;BME280;24974;54.444;18.560;2023-04-26T06:04:18;100488.59;;;9.38;51.99
28797;BME280;24974;54.444;18.560;2023-04-26T06:07:01;100483.41;;;9.36;51.90
28797;BME280;24974;54.444;18.560;2023-04-26T06:09:32;100492.03;;;9.43;51.85
28797;BME280;24974;54.444;18.560;2023-04-26T06:12:03;100489.53;;;9.19;52.86
28797;BME280;24974;54.444;18.560;2023-04-26T06:14:36;100486.22;;;9.59;51.93
28797;BME280;24974;54.444;18.560;2023-04-26T06:17:12;100494.66;;;9.62;51.96
28797;BME280;24974;54.444;18.560;2023-04-26T06:19:43;100498.25;;;9.08;52.55
28797;BME280;24974;54.444;18.560;2023-04-26T06:22:14;100492.16;;;9.24;53.04
28797;BME280;24974;54.444;18.560;2023-04-26T06:24:45;100491.44;;;9.46;52.18
28797;BME280;24974;54.444;18.560;2023-04-26T06:27:16;100486.47;;;9.21;52.75
28797;BME280;24974;54.444;18.560;2023-04-26T06:29:51;100497.03;;;9.28;52.06
28797;BME280;24974;54.444;18.560;2023-04-26T06:32:22;100496.94;;;8.91;52.85
28797;BME280;24974;54.444;18.560;2023-04-26T06:34:53;100483.47;;;9.72;51.09
28797;BME280;24974;54.444;18.560;2023-04-26T06:37:24;100487.44;;;9.66;50.85
28797;BME280;24974;54.444;18.560;2023-04-26T06:39:55;100488.78;;;9.55;50.73
28797;BME280;24974;54.444;18.560;2023-04-26T06:42:26;100489.00;;;9.04;52.02
28797;BME280;24974;54.444;18.560;2023-04-26T06:45:24;100470.72;;;9.27;52.12
28797;BME280;24974;54.444;18.560;2023-04-26T06:47:55;100481.19;;;9.11;52.43
28797;BME280;24974;54.444;18.560;2023-04-26T06:50:28;100481.28;;;10.19;49.79
28797;BME280;24974;54.444;18.560;2023-04-26T06:52:59;100483.72;;;10.21;49.46
28797;BME280;24974;54.444;18.560;2023-04-26T06:55:55;100487.72;;;10.59;48.09
28797;BME280;24974;54.444;18.560;2023-04-26T06:58:27;100496.56;;;10.12;49.24
28797;BME280;24974;54.444;18.560;2023-04-26T07:00:58;100492.28;;;10.42;48.77
28797;BME280;24974;54.444;18.560;2023-04-26T07:03:29;100505.75;;;9.93;49.64
28797;BME280;24974;54.444;18.560;2023-04-26T07:06:00;100498.09;;;9.68;49.89
28797;BME280;24974;54.444;18.560;2023-04-26T07:08:31;100497.28;;;10.40;48.52
28797;BME280;24974;54.444;18.560;2023-04-26T07:11:08;100499.47;;;10.51;48.61
28797;BME280;24974;54.444;18.560;2023-04-26T07:13:39;100493.00;;;10.11;49.49
28797;BME280;24974;54.444;18.560;2023-04-26T07:16:10;100499.75;;;9.14;51.31
28797;BME280;24974;54.444;18.560;2023-04-26T07:18:41;100497.59;;;9.66;50.13
28797;BME280;24974;54.444;18.560;2023-04-26T07:21:12;100519.84;;;8.82;51.10
28797;BME280;24974;54.444;18.560;2023-04-26T07:23:43;100510.03;;;8.94;51.52
28797;BME280;24974;54.444;18.560;2023-04-26T07:26:13;100506.56;;;9.30;50.76
28797;BME280;24974;54.444;18.560;2023-04-26T07:28:44;100507.78;;;9.65;50.63
28797;BME280;24974;54.444;18.560;2023-04-26T07:31:15;100509.50;;;9.61;50.57
28797;BME280;24974;54.444;18.560;2023-04-26T07:33:46;100505.16;;;9.46;50.77
28797;BME280;24974;54.444;18.560;2023-04-26T07:36:17;100507.06;;;9.46;50.15
28797;BME280;24974;54.444;18.560;2023-04-26T07:38:47;100507.91;;;9.33;50.32
28797;BME280;24974;54.444;18.560;2023-04-26T07:41:18;100506.03;;;10.05;49.42
28797;BME280;24974;54.444;18.560;2023-04-26T07:43:49;100494.25;;;10.05;49.32
28797;BME280;24974;54.444;18.560;2023-04-26T07:46:20;100521.72;;;9.41;50.70
28797;BME280;24974;54.444;18.560;2023-04-26T07:48:51;100504.94;;;9.29;50.98
28797;BME280;24974;54.444;18.560;2023-04-26T07:51:21;100504.75;;;9.39;51.39
28797;BME280;24974;54.444;18.560;2023-04-26T07:53:52;100513.41;;;9.46;51.37
28797;BME280;24974;54.444;18.560;2023-04-26T07:56:25;100511.25;;;9.93;49.88
28797;BME280;24974;54.444;18.560;2023-04-26T07:58:55;100511.66;;;10.36;49.43
28797;BME280;24974;54.444;18.560;2023-04-26T08:01:26;100516.91;;;9.74;50.50
28797;BME280;24974;54.444;18.560;2023-04-26T08:03:57;100515.41;;;9.13;51.78
28797;BME280;24974;54.444;18.560;2023-04-26T08:06:28;100521.53;;;8.64;53.35
28797;BME280;24974;54.444;18.560;2023-04-26T08:08:59;100521.50;;;9.65;51.45
28797;BME280;24974;54.444;18.560;2023-04-26T08:11:29;100520.13;;;9.90;50.19
28797;BME280;24974;54.444;18.560;2023-04-26T08:14:00;100520.28;;;9.58;50.97
28797;BME280;24974;54.444;18.560;2023-04-26T08:16:31;100520.66;;;9.78;50.39
28797;BME280;24974;54.444;18.560;2023-04-26T08:19:02;100522.72;;;9.59;51.51
28797;BME280;24974;54.444;18.560;2023-04-26T08:21:33;100526.84;;;9.84;50.79
28797;BME280;24974;54.444;18.560;2023-04-26T08:24:04;100534.56;;;9.82;50.98
28797;BME280;24974;54.444;18.560;2023-04-26T08:26:35;100531.53;;;9.70;51.84
28797;BME280;24974;54.444;18.560;2023-04-26T08:29:05;100543.06;;;9.31;54.03
28797;BME280;24974;54.444;18.560;2023-04-26T08:31:37;100550.44;;;9.30;56.48
28797;BME280;24974;54.444;18.560;2023-04-26T08:34:07;100552.28;;;8.23;59.96
28797;BME280;24974;54.444;18.560;2023-04-26T08:36:42;100549.91;;;8.54;59.53
28797;BME280;24974;54.444;18.560;2023-04-26T08:39:14;100562.50;;;7.99;61.25
28797;BME280;24974;54.444;18.560;2023-04-26T08:41:54;100569.31;;;8.20;61.50
28797;BME280;24974;54.444;18.560;2023-04-26T08:44:27;100581.09;;;8.39;62.99
28797;BME280;24974;54.444;18.560;2023-04-26T08:47:03;100592.75;;;8.07;63.87
28797;BME280;24974;54.444;18.560;2023-04-26T08:49:40;100571.06;;;8.49;64.76
28797;BME280;24974;54.444;18.560;2023-04-26T08:52:12;100568.88;;;8.13;64.40
28797;BME280;24974;54.444;18.560;2023-04-26T08:54:45;100585.97;;;7.62;65.81
28797;BME280;24974;54.444;18.560;2023-04-26T08:57:16;100578.31;;;7.59;67.08
28797;BME280;24974;54.444;18.560;2023-04-26T08:59:48;100584.66;;;7.78;67.98
28797;BME280;24974;54.444;18.560;2023-04-26T09:02:21;100577.06;;;7.94;66.87
28797;BME280;24974;54.444;18.560;2023-04-26T09:04:52;100591.06;;;8.11;65.65
28797;BME280;24974;54.444;18.560;2023-04-26T09:07:30;100584.19;;;8.14;65.96
28797;BME280;24974;54.444;18.560;2023-04-26T09:10:03;100592.59;;;8.18;64.90
28797;BME280;24974;54.444;18.560;2023-04-26T09:12:34;100591.16;;;7.82;67.11
28797;BME280;24974;54.444;18.560;2023-04-26T09:15:06;100587.97;;;7.75;66.43
28797;BME280;24974;54.444;18.560;2023-04-26T09:17:38;100598.16;;;8.31;66.25
28797;BME280;24974;54.444;18.560;2023-04-26T09:20:28;100594.66;;;8.07;66.70
28797;BME280;24974;54.444;18.560;2023-04-26T09:23:07;100577.91;;;8.84;65.80
28797;BME280;24974;54.444;18.560;2023-04-26T09:25:38;100581.78;;;8.83;64.90
28797;BME280;24974;54.444;18.560;2023-04-26T09:28:22;100587.69;;;9.04;64.53
28797;BME280;24974;54.444;18.560;2023-04-26T09:30:54;100579.81;;;9.57;63.84
28797;BME280;24974;54.444;18.560;2023-04-26T09:33:25;100582.78;;;9.47;64.35
28797;BME280;24974;54.444;18.560;2023-04-26T09:36:10;100580.94;;;9.70;64.96
28797;BME280;24974;54.444;18.560;2023-04-26T09:38:42;100587.44;;;8.86;64.83
28797;BME280;24974;54.444;18.560;2023-04-26T09:41:13;100579.22;;;10.10;62.83
28797;BME280;24974;54.444;18.560;2023-04-26T09:43:43;100599.94;;;9.39;62.26
28797;BME280;24974;54.444;18.560;2023-04-26T09:46:21;100598.91;;;9.90;62.05
28797;BME280;24974;54.444;18.560;2023-04-26T09:49:01;100599.91;;;9.11;63.10
28797;BME280;24974;54.444;18.560;2023-04-26T09:51:33;100603.91;;;9.33;63.09
28797;BME280;24974;54.444;18.560;2023-04-26T09:54:03;100605.13;;;8.94;62.55
28797;BME280;24974;54.444;18.560;2023-04-26T09:56:34;100609.06;;;9.62;62.00
28797;BME280;24974;54.444;18.560;2023-04-26T09:59:05;100629.53;;;9.56;59.96
28797;BME280;24974;54.444;18.560;2023-04-26T10:01:38;100615.38;;;9.62;61.13
28797;BME280;24974;54.444;18.560;2023-04-26T10:04:09;100613.97;;;9.51;61.07
28797;BME280;24974;54.444;18.560;2023-04-26T10:06:40;100612.31;;;9.22;62.52
28797;BME280;24974;54.444;18.560;2023-04-26T10:09:10;100617.19;;;9.25;61.76
28797;BME280;24974;54.444;18.560;2023-04-26T10:11:41;100616.31;;;9.58;61.71
28797;BME280;24974;54.444;18.560;2023-04-26T10:14:13;100633.56;;;9.31;62.02
28797;BME280;24974;54.444;18.560;2023-04-26T10:16:45;100640.47;;;9.42;62.41
28797;BME280;24974;54.444;18.560;2023-04-26T10:19:16;100633.28;;;9.73;62.61
28797;BME280;24974;54.444;18.560;2023-04-26T10:21:49;100637.34;;;9.76;63.20
28797;BME280;24974;54.444;18.560;2023-04-26T10:24:22;100645.34;;;10.14;62.66
28797;BME280;24974;54.444;18.560;2023-04-26T10:26:54;100644.81;;;9.15;63.71
28797;BME280;24974;54.444;18.560;2023-04-26T10:32:29;100665.91;;;8.63;65.22
28797;BME280;24974;54.444;18.560;2023-04-26T10:35:12;100665.56;;;9.35;65.12
28797;BME280;24974;54.444;18.560;2023-04-26T10:40:39;100672.00;;;9.86;63.27
28797;BME280;24974;54.444;18.560;2023-04-26T10:45:49;100669.94;;;9.04;63.58
28797;BME280;24974;54.444;18.560;2023-04-26T10:59:11;100675.44;;;8.66;64.24
28797;BME280;24974;54.444;18.560;2023-04-26T11:01:42;100683.94;;;9.35;62.74
28797;BME280;24974;54.444;18.560;2023-04-26T11:04:13;100700.19;;;8.80;63.27
28797;BME280;24974;54.444;18.560;2023-04-26T11:06:51;100687.84;;;9.15;62.46
28797;BME280;24974;54.444;18.560;2023-04-26T11:09:36;100681.03;;;9.59;62.08
28797;BME280;24974;54.444;18.560;2023-04-26T11:12:13;100684.91;;;9.85;60.56
28797;BME280;24974;54.444;18.560;2023-04-26T11:14:45;100680.59;;;10.61;59.17
28797;BME280;24974;54.444;18.560;2023-04-26T11:17:16;100681.22;;;11.48;56.37
28797;BME280;24974;54.444;18.560;2023-04-26T11:19:47;100689.22;;;11.67;55.30
28797;BME280;24974;54.444;18.560;2023-04-26T11:22:20;100680.47;;;11.87;55.44
28797;BME280;24974;54.444;18.560;2023-04-26T11:24:52;100679.63;;;11.25;56.47
28797;BME280;24974;54.444;18.560;2023-04-26T11:27:26;100687.25;;;10.33;57.79
28797;BME280;24974;54.444;18.560;2023-04-26T11:29:57;100685.13;;;9.75;59.53
28797;BME280;24974;54.444;18.560;2023-04-26T11:32:32;100694.75;;;9.86;60.10
28797;BME280;24974;54.444;18.560;2023-04-26T11:35:03;100705.03;;;10.08;60.37
28797;BME280;24974;54.444;18.560;2023-04-26T11:37:35;100698.47;;;9.35;58.46
28797;BME280;24974;54.444;18.560;2023-04-26T11:40:09;100693.66;;;10.01;56.96
28797;BME280;24974;54.444;18.560;2023-04-26T11:42:43;100711.44;;;9.76;55.75
28797;BME280;24974;54.444;18.560;2023-04-26T11:45:15;100706.88;;;10.13;54.08
28797;BME280;24974;54.444;18.560;2023-04-26T11:47:46;100717.88;;;9.99;51.62
28797;BME280;24974;54.444;18.560;2023-04-26T11:50:17;100707.25;;;10.61;50.12
28797;BME280;24974;54.444;18.560;2023-04-26T11:52:49;100700.06;;;11.32;47.51
28797;BME280;24974;54.444;18.560;2023-04-26T11:55:23;100712.56;;;11.16;48.02
28797;BME280;24974;54.444;18.560;2023-04-26T11:57:57;100699.25;;;11.09;48.60
28797;BME280;24974;54.444;18.560;2023-04-26T12:00:28;100714.34;;;12.45;46.04
28797;BME280;24974;54.444;18.560;2023-04-26T12:03:04;100708.50;;;13.07;44.65
28797;BME280;24974;54.444;18.560;2023-04-26T12:05:40;100728.28;;;12.48;45.01
28797;BME280;24974;54.444;18.560;2023-04-26T12:08:11;100724.44;;;12.10;45.46
28797;BME280;24974;54.444;18.560;2023-04-26T12:10:42;100734.00;;;12.12;44.24
28797;BME280;24974;54.444;18.560;2023-04-26T12:13:12;100720.97;;;11.64;44.64
28797;BME280;24974;54.444;18.560;2023-04-26T12:15:45;100740.56;;;12.42;44.00
28797;BME280;24974;54.444;18.560;2023-04-26T12:18:20;100734.34;;;12.94;42.61
28797;BME280;24974;54.444;18.560;2023-04-26T12:20:57;100730.97;;;14.25;39.60
28797;BME280;24974;54.444;18.560;2023-04-26T12:23:38;100736.44;;;14.34;40.37
28797;BME280;24974;54.444;18.560;2023-04-26T12:26:10;100736.31;;;14.60;38.52
28797;BME280;24974;54.444;18.560;2023-04-26T12:28:41;100724.31;;;15.18;36.77
28797;BME280;24974;54.444;18.560;2023-04-26T12:31:13;100725.03;;;14.06;38.48
28797;BME280;24974;54.444;18.560;2023-04-26T12:33:43;100736.50;;;14.25;38.58
28797;BME280;24974;54.444;18.560;2023-04-26T12:36:14;100736.81;;;12.29;40.27
28797;BME280;24974;54.444;18.560;2023-04-26T12:38:45;100759.41;;;11.25;41.47
28797;BME280;24974;54.444;18.560;2023-04-26T12:41:16;100759.47;;;11.56;41.47
28797;BME280;24974;54.444;18.560;2023-04-26T12:43:47;100749.19;;;11.78;41.80
28797;BME280;24974;54.444;18.560;2023-04-26T12:46:18;100760.75;;;12.60;40.00
28797;BME280;24974;54.444;18.560;2023-04-26T12:48:49;100753.31;;;15.00;35.78
28797;BME280;24974;54.444;18.560;2023-04-26T12:51:20;100743.22;;;14.53;34.88
28797;BME280;24974;54.444;18.560;2023-04-26T12:53:51;100755.56;;;13.54;35.86
28797;BME280;24974;54.444;18.560;2023-04-26T12:56:23;100756.84;;;12.61;37.96
28797;BME280;24974;54.444;18.560;2023-04-26T12:58:54;100766.78;;;13.66;35.69
28797;BME280;24974;54.444;18.560;2023-04-26T13:01:25;100769.59;;;14.72;34.68
28797;BME280;24974;54.444;18.560;2023-04-26T13:03:56;100765.72;;;16.38;32.16
28797;BME280;24974;54.444;18.560;2023-04-26T13:06:29;100754.06;;;15.42;33.47
28797;BME280;24974;54.444;18.560;2023-04-26T13:09:00;100764.25;;;13.99;34.35
28797;BME280;24974;54.444;18.560;2023-04-26T13:11:31;100743.28;;;13.98;34.69
28797;BME280;24974;54.444;18.560;2023-04-26T13:14:02;100753.31;;;14.41;34.06
28797;BME280;24974;54.444;18.560;2023-04-26T13:16:33;100758.97;;;15.03;32.94
28797;BME280;24974;54.444;18.560;2023-04-26T13:19:04;100763.09;;;15.18;32.72
28797;BME280;24974;54.444;18.560;2023-04-26T13:21:36;100748.16;;;13.28;34.03
28797;BME280;24974;54.444;18.560;2023-04-26T13:24:07;100762.41;;;13.56;33.67
28797;BME280;24974;54.444;18.560;2023-04-26T13:26:38;100771.16;;;14.81;33.05
28797;BME280;24974;54.444;18.560;2023-04-26T13:29:09;100767.19;;;15.12;31.64
28797;BME280;24974;54.444;18.560;2023-04-26T13:31:40;100764.25;;;14.67;30.72
28797;BME280;24974;54.444;18.560;2023-04-26T13:34:10;100780.25;;;14.61;30.49